Time;durP1;ratioP1;P1;durP2;ratioP2;P2;SDS_P1;SDS_P2;PMS_P1;PMS_P2;Temp;Humidity;BMP_temperature;BMP_pressure;BME280_temperature;BME280_humidity;BME280_pressure;Samples;Min_cycle;Max_cycle;Signal;HPM_P1;HPM_P2
2022/11/27 00:04:45;;;;;;;13.88;6.40;;;8.20;99.90;;;;;;10035331;28;20022;-67
2022/11/27 00:09:35;;;;;;;12.35;6.18;;;8.20;99.90;;;;;;10041247;28;20077;-70
2022/11/27 00:14:26;;;;;;;11.38;6.53;;;8.10;99.90;;;;;;10034880;28;20622;-70
2022/11/27 00:19:17;;;;;;;12.80;6.10;;;8.00;99.90;;;;;;10042348;28;20027;-69
2022/11/27 00:24:09;;;;;;;13.00;5.40;;;8.10;99.90;;;;;;10039912;28;20368;-70
2022/11/27 00:29:00;;;;;;;9.38;4.63;;;8.00;99.90;;;;;;10039329;28;20033;-70
2022/11/27 00:33:53;;;;;;;12.95;4.97;;;8.00;99.90;;;;;;10035631;28;20435;-70
2022/11/27 00:38:44;;;;;;;12.90;5.63;;;8.00;99.90;;;;;;10031508;28;20029;-69
2022/11/27 00:43:36;;;;;;;9.68;5.40;;;8.00;99.90;;;;;;10035127;28;20030;-70
2022/11/27 00:48:27;;;;;;;13.40;5.53;;;8.00;99.90;;;;;;10033326;28;20049;-70
2022/11/27 00:53:17;;;;;;;11.15;5.78;;;8.00;99.90;;;;;;10033262;28;20080;-66
2022/11/27 00:58:08;;;;;;;11.20;5.40;;;7.80;99.90;;;;;;10028600;28;20064;-67
2022/11/27 01:02:58;;;;;;;14.93;5.32;;;7.80;99.90;;;;;;10034867;28;20039;-71
2022/11/27 01:07:49;;;;;;;9.98;3.95;;;7.80;99.90;;;;;;10032031;28;20155;-70
2022/11/27 01:12:40;;;;;;;12.32;4.90;;;7.70;99.90;;;;;;10032849;28;20050;-70
2022/11/27 01:17:31;;;;;;;10.00;5.00;;;7.70;99.90;;;;;;10034597;28;20112;-70
2022/11/27 01:22:21;;;;;;;9.55;4.97;;;7.60;99.90;;;;;;10034650;28;20025;-66
2022/11/27 01:27:13;;;;;;;8.95;4.63;;;7.60;99.90;;;;;;10032102;28;20091;-64
2022/11/27 01:32:04;;;;;;;11.48;5.43;;;7.70;99.90;;;;;;10027244;28;20025;-68
2022/11/27 01:36:54;;;;;;;12.23;5.00;;;7.60;99.90;;;;;;10024286;28;20029;-68
2022/11/27 01:41:46;;;;;;;14.48;5.05;;;7.60;99.90;;;;;;10031750;28;20207;-70
2022/11/27 01:46:42;;;;;;;11.18;5.18;;;7.70;99.90;;;;;;10031367;28;20081;-69
2022/11/27 01:51:32;;;;;;;14.17;5.07;;;7.60;99.90;;;;;;10036398;28;20029;-72
2022/11/27 01:56:25;;;;;;;8.50;4.28;;;7.40;99.90;;;;;;10028798;28;20615;-69
2022/11/27 02:01:16;;;;;;;10.55;4.85;;;7.50;99.90;;;;;;10029227;28;20411;-69
2022/11/27 02:06:08;;;;;;;9.35;4.35;;;7.50;99.90;;;;;;10034837;28;20038;-71
2022/11/27 02:11:14;;;;;;;10.65;4.65;;;7.50;99.90;;;;;;10039568;28;20021;-69
2022/11/27 02:16:28;;;;;;;19.27;7.80;;;7.40;99.90;;;;;;10041151;28;20565;-70
2022/11/27 02:21:35;;;;;;;11.38;4.57;;;7.20;99.90;;;;;;10049406;28;20026;-71
2022/11/27 02:26:44;;;;;;;14.98;6.53;;;7.20;99.90;;;;;;10047985;28;20048;-69
2022/11/27 02:31:59;;;;;;;9.65;4.38;;;7.30;99.90;;;;;;10042963;28;20082;-70
2022/11/27 02:37:15;;;;;;;9.88;5.20;;;7.30;99.90;;;;;;10043326;28;20037;-68
2022/11/27 02:42:12;;;;;;;7.88;3.72;;;7.30;99.90;;;;;;10025615;28;20045;-64
2022/11/27 02:47:04;;;;;;;12.95;5.68;;;7.20;99.90;;;;;;10042621;28;20053;-70
2022/11/27 02:51:57;;;;;;;10.75;4.45;;;7.30;99.90;;;;;;10041420;28;21160;-69
2022/11/27 02:56:50;;;;;;;8.63;4.35;;;7.30;99.90;;;;;;10041198;28;20041;-70
2022/11/27 03:01:47;;;;;;;11.68;6.20;;;7.30;99.90;;;;;;10045768;28;20079;-71
2022/11/27 03:06:46;;;;;;;9.82;4.55;;;7.40;99.90;;;;;;10042141;28;20064;-66
2022/11/27 03:11:37;;;;;;;14.85;4.97;;;7.40;99.90;;;;;;10042334;28;20109;-67
2022/11/27 03:16:41;;;;;;;11.90;4.72;;;7.40;99.90;;;;;;10038247;28;20097;-65
2022/11/27 03:21:55;;;;;;;8.70;5.03;;;7.50;99.90;;;;;;10039941;28;20026;-65
2022/11/27 03:26:47;;;;;;;12.65;5.10;;;7.40;99.90;;;;;;10040807;28;20041;-66
2022/11/27 03:31:37;;;;;;;11.30;4.93;;;7.40;99.90;;;;;;10042370;28;20037;-63
2022/11/27 03:36:28;;;;;;;10.13;5.00;;;7.40;99.90;;;;;;10035476;28;20036;-63
2022/11/27 03:41:29;;;;;;;8.38;4.60;;;7.40;99.90;;;;;;10041283;28;20058;-64
2022/11/27 03:46:36;;;;;;;14.13;4.90;;;7.50;99.90;;;;;;10035521;28;20139;-62
2022/11/27 03:51:33;;;;;;;10.02;4.70;;;7.60;99.90;;;;;;10038209;28;20025;-67
2022/11/27 03:56:36;;;;;;;10.85;4.68;;;7.70;99.90;;;;;;10036043;28;20112;-63
2022/11/27 04:01:28;;;;;;;8.00;4.22;;;7.70;99.90;;;;;;10031221;28;20121;-65
2022/11/27 04:06:18;;;;;;;10.00;5.63;;;7.50;99.90;;;;;;10032828;28;20041;-64
2022/11/27 04:11:09;;;;;;;7.05;3.75;;;7.50;99.90;;;;;;10033538;28;20033;-63
2022/11/27 04:16:00;;;;;;;7.63;4.25;;;7.50;99.90;;;;;;10036937;28;20029;-63
2022/11/27 04:20:51;;;;;;;6.43;3.85;;;7.60;99.90;;;;;;10041115;28;20069;-63
2022/11/27 04:25:42;;;;;;;10.30;4.85;;;7.60;99.90;;;;;;10040444;28;20081;-65
2022/11/27 04:30:33;;;;;;;9.07;4.40;;;7.40;99.90;;;;;;10033157;28;20069;-63
2022/11/27 04:35:23;;;;;;;8.43;3.30;;;7.40;99.90;;;;;;10033824;28;20029;-65
2022/11/27 04:40:14;;;;;;;8.73;4.45;;;7.40;99.90;;;;;;10038309;28;20041;-70
2022/11/27 04:45:05;;;;;;;8.70;4.25;;;7.40;99.90;;;;;;10038204;28;20057;-70
2022/11/27 04:49:56;;;;;;;8.57;4.78;;;7.30;99.90;;;;;;10039622;28;20128;-67
2022/11/27 04:54:46;;;;;;;10.73;4.10;;;7.30;99.90;;;;;;10036947;28;20108;-67
2022/11/27 04:59:37;;;;;;;9.52;4.68;;;7.30;99.90;;;;;;10038674;28;20025;-69
2022/11/27 05:04:28;;;;;;;7.82;4.03;;;7.40;99.90;;;;;;10032147;28;20037;-69
2022/11/27 05:09:19;;;;;;;11.88;4.32;;;7.50;99.90;;;;;;10038434;28;20088;-64
2022/11/27 05:14:16;;;;;;;8.48;4.20;;;7.30;99.90;;;;;;10032951;28;20111;-66
2022/11/27 05:19:09;;;;;;;8.63;3.53;;;7.30;99.90;;;;;;10036978;28;20034;-64
2022/11/27 05:24:00;;;;;;;10.25;4.80;;;7.30;99.90;;;;;;10033750;28;20560;-69
2022/11/27 05:28:50;;;;;;;10.07;4.88;;;7.30;99.90;;;;;;10035615;28;20083;-70
2022/11/27 05:33:41;;;;;;;9.95;5.10;;;7.20;99.90;;;;;;10035419;28;20387;-69
2022/11/27 05:38:32;;;;;;;8.02;4.65;;;7.30;99.90;;;;;;10037887;28;20084;-67
2022/11/27 05:43:22;;;;;;;12.77;5.45;;;7.40;99.90;;;;;;10042464;28;20533;-69
2022/11/27 05:48:13;;;;;;;7.10;3.92;;;7.30;99.90;;;;;;10043914;28;20053;-69
2022/11/27 05:53:03;;;;;;;7.85;3.95;;;7.30;99.90;;;;;;10039412;28;20049;-68
2022/11/27 05:57:54;;;;;;;8.63;4.18;;;7.30;99.90;;;;;;10037106;28;20435;-68
2022/11/27 06:02:45;;;;;;;9.85;4.20;;;7.20;99.90;;;;;;10037242;28;20106;-69
2022/11/27 06:07:35;;;;;;;8.77;4.75;;;7.20;99.90;;;;;;10033473;28;20431;-67
2022/11/27 06:12:26;;;;;;;7.18;3.72;;;7.30;99.90;;;;;;10039000;28;20030;-68
2022/11/27 06:17:16;;;;;;;9.07;4.05;;;7.20;99.90;;;;;;10041637;28;20037;-70
2022/11/27 06:22:07;;;;;;;9.20;4.63;;;7.20;99.90;;;;;;10043956;28;20041;-69
2022/11/27 06:26:58;;;;;;;7.70;4.38;;;7.00;99.90;;;;;;10041993;28;20032;-70
2022/11/27 06:31:48;;;;;;;10.05;5.40;;;7.00;99.90;;;;;;10045828;28;20465;-70
2022/11/27 06:36:40;;;;;;;10.45;5.50;;;7.10;99.90;;;;;;10029152;28;20475;-68
2022/11/27 06:41:31;;;;;;;11.25;4.95;;;7.20;99.90;;;;;;10040242;28;20090;-69
2022/11/27 06:46:23;;;;;;;10.00;5.22;;;7.20;99.90;;;;;;10042202;28;20526;-68
2022/11/27 06:51:16;;;;;;;10.25;4.93;;;7.10;99.90;;;;;;10040010;28;20030;-65
2022/11/27 06:56:10;;;;;;;12.75;4.68;;;7.00;99.90;;;;;;10033430;28;20110;-61
2022/11/27 07:01:03;;;;;;;8.35;4.10;;;6.90;99.90;;;;;;10040797;28;20116;-64
2022/11/27 07:05:54;;;;;;;13.48;4.97;;;6.90;99.90;;;;;;10032728;28;20037;-66
2022/11/27 07:10:44;;;;;;;14.48;6.10;;;7.00;99.90;;;;;;10044627;28;20111;-63
2022/11/27 07:15:35;;;;;;;12.57;5.32;;;7.00;99.90;;;;;;10037849;28;20136;-63
2022/11/27 07:20:26;;;;;;;11.75;5.10;;;7.10;99.90;;;;;;10045511;28;20064;-62
2022/11/27 07:25:16;;;;;;;9.68;4.78;;;7.20;99.90;;;;;;10041896;28;20135;-70
2022/11/27 07:30:07;;;;;;;13.02;5.30;;;7.20;99.90;;;;;;10039354;28;20037;-67
2022/11/27 07:34:58;;;;;;;11.82;5.00;;;7.10;99.90;;;;;;10032946;28;20080;-65
2022/11/27 07:39:49;;;;;;;13.05;5.53;;;7.30;99.90;;;;;;10037080;28;20457;-69
2022/11/27 07:44:40;;;;;;;14.98;7.30;;;7.10;99.90;;;;;;10041496;28;20045;-67
2022/11/27 07:49:31;;;;;;;12.20;5.65;;;7.10;99.90;;;;;;10037285;28;20462;-64
2022/11/27 07:54:21;;;;;;;10.77;4.90;;;7.10;99.90;;;;;;10034235;28;20103;-66
2022/11/27 07:59:12;;;;;;;10.07;4.80;;;7.30;99.90;;;;;;10033131;28;20065;-71
2022/11/27 08:04:03;;;;;;;12.02;5.15;;;7.40;99.90;;;;;;10031963;28;20018;-70
2022/11/27 08:08:57;;;;;;;15.98;5.60;;;7.40;99.90;;;;;;10036502;28;20472;-70
2022/11/27 08:13:48;;;;;;;8.93;5.03;;;7.50;99.90;;;;;;10032297;28;20064;-70
2022/11/27 08:18:39;;;;;;;10.63;4.47;;;7.50;99.90;;;;;;10035092;28;20033;-71
2022/11/27 08:23:29;;;;;;;12.27;5.03;;;7.60;99.90;;;;;;10034524;28;20048;-71
2022/11/27 08:28:20;;;;;;;11.27;4.53;;;7.40;99.90;;;;;;10036818;28;20515;-69
2022/11/27 08:33:14;;;;;;;12.45;4.18;;;7.50;99.90;;;;;;10022175;28;20248;-71
2022/11/27 08:38:04;;;;;;;12.93;5.13;;;7.50;99.90;;;;;;10032866;28;20459;-66
2022/11/27 08:42:57;;;;;;;14.50;5.07;;;7.40;99.90;;;;;;10032281;28;20033;-69
2022/11/27 08:47:48;;;;;;;12.32;5.35;;;7.40;99.90;;;;;;10038350;28;20065;-72
2022/11/27 08:52:38;;;;;;;10.02;4.70;;;7.70;99.90;;;;;;10037945;28;20025;-71
2022/11/27 08:57:29;;;;;;;10.93;4.05;;;7.70;99.90;;;;;;10035510;28;20112;-69
2022/11/27 09:02:20;;;;;;;9.68;4.45;;;7.70;99.90;;;;;;10024765;28;20036;-69
2022/11/27 09:07:13;;;;;;;11.48;5.30;;;7.80;99.90;;;;;;10023724;28;20052;-68
2022/11/27 09:12:03;;;;;;;12.98;5.38;;;7.70;99.90;;;;;;10029614;28;20048;-61
2022/11/27 09:16:54;;;;;;;9.32;4.28;;;7.70;99.90;;;;;;10050821;28;20580;-70
2022/11/27 09:21:45;;;;;;;10.85;4.53;;;7.80;99.90;;;;;;10030560;28;20032;-63
2022/11/27 09:26:37;;;;;;;8.15;3.90;;;7.80;99.90;;;;;;10046009;28;20034;-70
2022/11/27 09:31:28;;;;;;;7.90;4.13;;;7.90;99.90;;;;;;10047295;28;20021;-69
2022/11/27 09:36:21;;;;;;;6.72;3.88;;;8.10;99.90;;;;;;10022744;28;20029;-69
2022/11/27 09:41:39;;;;;;;7.13;4.57;;;8.20;99.90;;;;;;10042402;28;20030;-70
2022/11/27 09:46:35;;;;;;;8.88;4.70;;;8.20;99.90;;;;;;10034951;28;20064;-69
2022/11/27 09:51:38;;;;;;;12.40;6.10;;;8.20;99.90;;;;;;10038418;28;20041;-68
2022/11/27 09:56:33;;;;;;;11.63;6.40;;;8.20;99.90;;;;;;10039424;28;20408;-71
2022/11/27 10:01:28;;;;;;;11.50;6.10;;;8.50;99.90;;;;;;10040998;28;20071;-65
2022/11/27 10:06:40;;;;;;;13.50;6.47;;;8.60;99.90;;;;;;10039996;28;20116;-69
2022/11/27 10:11:37;;;;;;;13.35;5.68;;;8.60;99.90;;;;;;10037089;28;20029;-69
2022/11/27 10:17:01;;;;;;;9.88;5.18;;;8.60;99.90;;;;;;10038952;28;20040;-69
2022/11/27 10:21:59;;;;;;;10.90;4.72;;;8.60;99.90;;;;;;10043352;28;20519;-69
2022/11/27 10:26:53;;;;;;;12.60;4.57;;;8.70;99.90;;;;;;10028594;28;20036;-68
2022/11/27 10:31:50;;;;;;;15.15;5.32;;;8.80;99.90;;;;;;10021475;28;20041;-64
2022/11/27 10:36:45;;;;;;;9.48;4.75;;;8.80;99.90;;;;;;10018022;28;20021;-62
2022/11/27 10:41:54;;;;;;;8.55;4.90;;;8.80;99.90;;;;;;10030482;28;20037;-67
2022/11/27 10:46:45;;;;;;;10.82;4.18;;;8.80;99.90;;;;;;10043063;28;20143;-66
2022/11/27 10:51:39;;;;;;;10.32;4.47;;;8.70;99.90;;;;;;10023757;28;20499;-69
2022/11/27 10:56:49;;;;;;;12.45;4.63;;;8.80;99.90;;;;;;10024827;28;20022;-68
2022/11/27 11:01:48;;;;;;;9.80;4.15;;;8.80;99.90;;;;;;10028916;28;20051;-66
2022/11/27 11:06:42;;;;;;;8.80;4.15;;;9.00;99.90;;;;;;10021590;28;20396;-66
2022/11/27 11:11:33;;;;;;;10.52;4.75;;;8.90;99.90;;;;;;10022311;28;20052;-68
2022/11/27 11:16:29;;;;;;;7.25;4.00;;;9.00;99.90;;;;;;10036325;28;20053;-67
2022/11/27 11:21:22;;;;;;;;;;;9.00;99.90;;;;;;10035578;28;20468;-68
2022/11/27 11:26:22;;;;;;;9.30;5.30;;;9.10;99.90;;;;;;10019357;28;19928;-67
2022/11/27 11:31:17;;;;;;;8.55;4.50;;;9.10;99.90;;;;;;10039336;28;20072;-71
2022/11/27 11:36:10;;;;;;;7.90;4.03;;;9.20;99.90;;;;;;10031902;28;20037;-73
2022/11/27 11:41:04;;;;;;;12.60;4.90;;;9.20;99.90;;;;;;10034094;28;20018;-66
2022/11/27 11:46:19;;;;;;;8.15;3.55;;;9.20;99.90;;;;;;10031937;28;20056;-67
2022/11/27 11:51:18;;;;;;;5.70;4.55;;;9.30;99.90;;;;;;10021861;28;20445;-74
2022/11/27 11:56:15;;;;;;;6.53;3.10;;;9.40;99.90;;;;;;10035256;28;20088;-74
2022/11/27 12:01:37;;;;;;;7.65;3.40;;;9.50;99.90;;;;;;10042010;28;20041;-75
2022/11/27 12:06:32;;;;;;;6.43;4.15;;;9.40;99.90;;;;;;10035456;28;20037;-73
2022/11/27 12:11:46;;;;;;;10.40;4.85;;;9.30;99.90;;;;;;10040514;28;20420;-71
2022/11/27 12:17:02;;;;;;;9.88;4.25;;;9.30;99.90;;;;;;10035329;28;20045;-64
2022/11/27 12:22:16;;;;;;;8.98;5.13;;;9.20;99.90;;;;;;10041123;28;20048;-65
2022/11/27 12:27:44;;;;;;;8.90;4.28;;;9.20;99.90;;;;;;10032316;28;20068;-69
2022/11/27 12:33:08;;;;;;;8.93;4.40;;;9.40;99.90;;;;;;10029975;28;20757;-68
2022/11/27 12:38:32;;;;;;;6.63;3.13;;;9.30;99.90;;;;;;10033645;28;20061;-66
2022/11/27 12:43:24;;;;;;;9.55;4.57;;;9.30;99.90;;;;;;10029405;28;20305;-70
2022/11/27 12:48:45;;;;;;;9.48;3.35;;;9.20;99.90;;;;;;10032548;28;20049;-68
2022/11/27 12:53:43;;;;;;;5.60;3.53;;;9.20;99.90;;;;;;10036788;28;20053;-69
2022/11/27 12:58:41;;;;;;;6.63;3.70;;;9.30;99.90;;;;;;10037218;28;20578;-75
2022/11/27 13:04:10;;;;;;;7.25;3.60;;;9.30;99.90;;;;;;10041248;28;20116;-72
2022/11/27 13:09:21;;;;;;;9.32;3.83;;;9.40;99.90;;;;;;10014559;28;20878;-64
2022/11/27 13:14:20;;;;;;;6.80;3.42;;;9.40;99.90;;;;;;10030146;28;20457;-75
2022/11/27 13:19:33;;;;;;;9.90;5.15;;;9.40;99.90;;;;;;10035251;28;20546;-75
2022/11/27 13:24:25;;;;;;;10.63;4.38;;;9.30;99.90;;;;;;10022754;28;20026;-71
2022/11/27 13:29:28;;;;;;;7.55;3.75;;;9.40;99.90;;;;;;10023761;28;20124;-71
2022/11/27 13:34:22;;;;;;;8.70;4.57;;;9.50;99.90;;;;;;10016893;28;20116;-72
2022/11/27 13:39:27;;;;;;;8.10;3.80;;;9.60;99.90;;;;;;10019965;28;20496;-75
2022/11/27 13:44:26;;;;;;;10.33;4.03;;;9.50;99.90;;;;;;10019447;28;20037;-74
2022/11/27 13:49:33;;;;;;;6.35;3.50;;;9.30;99.90;;;;;;10019010;28;20034;-72
2022/11/27 13:54:24;;;;;;;10.00;4.28;;;9.30;99.90;;;;;;10019821;28;20109;-70
2022/11/27 13:59:17;;;;;;;6.90;3.00;;;9.30;99.90;;;;;;10020743;28;20101;-66
2022/11/27 14:04:08;;;;;;;6.45;3.40;;;9.20;99.90;;;;;;10029363;28;20034;-64
2022/11/27 14:09:06;;;;;;;7.20;3.53;;;9.20;99.90;;;;;;10011542;28;20029;-72
2022/11/27 14:13:59;;;;;;;6.53;3.30;;;9.10;99.90;;;;;;10021439;28;20396;-73
2022/11/27 14:18:59;;;;;;;7.75;3.35;;;9.20;99.90;;;;;;10019361;28;20578;-74
2022/11/27 14:23:51;;;;;;;5.47;3.22;;;9.20;99.90;;;;;;10020851;28;20026;-71
2022/11/27 14:28:44;;;;;;;5.05;2.60;;;9.00;99.90;;;;;;10024109;28;20033;-67
2022/11/27 14:33:43;;;;;;;6.30;3.10;;;9.00;99.90;;;;;;10022913;28;20116;-68
2022/11/27 14:38:35;;;;;;;5.70;2.92;;;9.00;99.90;;;;;;10021187;28;20034;-68
2022/11/27 14:43:26;;;;;;;6.22;3.20;;;9.00;99.90;;;;;;10023164;28;20049;-71
2022/11/27 14:48:26;;;;;;;5.18;3.15;;;8.90;99.90;;;;;;10017884;28;20052;-72
2022/11/27 14:53:19;;;;;;;4.30;2.88;;;8.80;99.90;;;;;;10022713;28;20276;-71
2022/11/27 14:58:19;;;;;;;4.43;2.63;;;8.80;99.90;;;;;;10031765;28;20042;-74
2022/11/27 15:03:10;;;;;;;5.15;2.38;;;8.80;99.90;;;;;;10011813;28;20507;-65
2022/11/27 15:08:01;;;;;;;5.63;3.65;;;8.80;99.90;;;;;;10018098;28;20050;-72
2022/11/27 15:12:52;;;;;;;6.40;3.42;;;8.70;99.90;;;;;;10007730;28;20056;-63
2022/11/27 15:17:47;;;;;;;7.95;2.75;;;8.70;99.90;;;;;;10034228;28;20034;-72
2022/11/27 15:22:38;;;;;;;7.43;3.33;;;8.70;99.90;;;;;;10040880;28;20496;-70
2022/11/27 15:27:43;;;;;;;6.53;3.45;;;8.70;99.90;;;;;;10039440;28;20091;-73
2022/11/27 15:32:50;;;;;;;7.27;3.27;;;8.60;99.90;;;;;;10037574;28;20407;-68
2022/11/27 15:37:41;;;;;;;6.82;3.92;;;8.60;99.90;;;;;;10035546;28;20026;-69
2022/11/27 15:42:31;;;;;;;4.82;3.45;;;8.70;99.90;;;;;;10023844;28;20084;-65
2022/11/27 15:47:35;;;;;;;9.60;3.83;;;8.70;99.90;;;;;;10032317;28;20575;-72
2022/11/27 15:52:26;;;;;;;7.63;3.85;;;8.70;99.90;;;;;;10027427;28;20041;-66
2022/11/27 15:57:18;;;;;;;6.05;4.65;;;8.60;99.90;;;;;;10029801;28;20033;-64
2022/11/27 16:02:10;;;;;;;7.18;3.05;;;8.60;99.90;;;;;;10033705;28;20199;-72
2022/11/27 16:07:01;;;;;;;7.55;3.85;;;8.60;99.90;;;;;;10032006;28;20075;-70
2022/11/27 16:11:52;;;;;;;7.75;3.45;;;8.60;99.90;;;;;;10017665;28;20156;-66
2022/11/27 16:16:44;;;;;;;6.40;3.50;;;8.50;99.90;;;;;;10018304;28;20649;-70
2022/11/27 16:21:34;;;;;;;8.82;3.72;;;8.50;99.90;;;;;;10031655;28;20095;-72
2022/11/27 16:26:26;;;;;;;4.63;3.17;;;8.50;99.90;;;;;;10030843;28;20038;-72
2022/11/27 16:31:17;;;;;;;6.32;3.20;;;8.40;99.90;;;;;;10032174;28;20921;-73
2022/11/27 16:36:11;;;;;;;9.82;4.72;;;8.40;99.90;;;;;;10029607;28;20029;-70
2022/11/27 16:41:04;;;;;;;8.88;4.38;;;8.40;99.90;;;;;;10029106;28;20429;-69
2022/11/27 16:46:06;;;;;;;8.05;3.90;;;8.40;99.90;;;;;;10028488;28;20045;-69
2022/11/27 16:51:04;;;;;;;9.13;4.57;;;8.30;99.90;;;;;;10035424;28;20406;-71
2022/11/27 16:55:55;;;;;;;7.13;4.63;;;8.30;99.90;;;;;;10029790;28;20089;-66
2022/11/27 17:00:46;;;;;;;8.50;4.32;;;8.30;99.90;;;;;;10029986;28;20128;-72
2022/11/27 17:05:37;;;;;;;8.55;4.53;;;8.20;99.90;;;;;;10028544;28;20518;-70
2022/11/27 17:10:29;;;;;;;10.73;5.55;;;8.30;99.90;;;;;;10031760;28;20505;-74
2022/11/27 17:15:19;;;;;;;8.93;4.88;;;8.20;99.90;;;;;;10027164;28;20040;-72
2022/11/27 17:20:10;;;;;;;7.93;4.90;;;8.20;99.90;;;;;;10036106;28;20029;-71
2022/11/27 17:25:01;;;;;;;10.50;5.93;;;8.20;99.90;;;;;;10036711;28;20021;-71
2022/11/27 17:29:52;;;;;;;9.48;5.72;;;8.20;99.90;;;;;;10032472;28;20044;-72
2022/11/27 17:34:44;;;;;;;11.90;5.30;;;8.20;99.90;;;;;;10028468;28;20029;-68
2022/11/27 17:39:34;;;;;;;10.35;4.88;;;8.20;99.90;;;;;;10040397;28;20033;-62
2022/11/27 17:44:25;;;;;;;8.10;5.30;;;8.20;99.90;;;;;;10036238;28;20041;-66
2022/11/27 17:49:16;;;;;;;10.18;5.22;;;8.20;99.90;;;;;;10035727;28;20072;-62
2022/11/27 17:54:06;;;;;;;8.25;5.70;;;8.30;99.90;;;;;;10037516;28;20108;-68
2022/11/27 17:58:58;;;;;;;8.88;5.43;;;8.30;99.90;;;;;;10028915;28;20038;-70
2022/11/27 18:03:50;;;;;;;8.50;5.00;;;8.30;99.90;;;;;;10038860;28;20029;-71
2022/11/27 18:08:40;;;;;;;10.75;5.30;;;8.30;99.90;;;;;;10033810;28;20033;-73
2022/11/27 18:13:31;;;;;;;13.98;6.78;;;8.20;99.90;;;;;;10030260;28;20481;-66
2022/11/27 18:18:22;;;;;;;10.95;5.80;;;8.30;99.90;;;;;;10013400;28;20034;-71
2022/11/27 18:23:14;;;;;;;8.10;5.60;;;8.20;99.90;;;;;;10012390;28;20519;-74
2022/11/27 18:28:05;;;;;;;11.65;6.03;;;8.30;99.90;;;;;;10019096;28;20033;-70
2022/11/27 18:32:56;;;;;;;11.73;5.15;;;8.40;99.90;;;;;;10013418;28;20472;-72
2022/11/27 18:37:47;;;;;;;10.20;5.15;;;8.30;99.90;;;;;;10026850;28;20053;-68
2022/11/27 18:42:38;;;;;;;11.65;6.03;;;8.30;99.90;;;;;;10033169;28;20024;-74
2022/11/27 18:47:29;;;;;;;8.73;5.38;;;8.30;99.90;;;;;;10029032;28;20058;-67
2022/11/27 18:52:19;;;;;;;14.18;6.05;;;8.30;99.90;;;;;;10038353;28;20033;-75
2022/11/27 18:57:10;;;;;;;10.73;6.03;;;8.40;99.90;;;;;;10034209;28;20025;-68
2022/11/27 19:02:02;;;;;;;9.40;4.95;;;8.40;99.90;;;;;;10024425;28;20022;-69
2022/11/27 19:06:53;;;;;;;17.60;7.50;;;8.40;99.90;;;;;;10028331;28;20077;-72
2022/11/27 19:11:43;;;;;;;9.30;6.05;;;8.30;99.90;;;;;;10032853;28;20480;-75
2022/11/27 19:16:40;;;;;;;10.90;6.32;;;8.20;99.90;;;;;;10024532;28;20045;-68
2022/11/27 19:21:33;;;;;;;13.65;7.13;;;8.10;99.90;;;;;;10035523;28;20038;-67
2022/11/27 19:26:27;;;;;;;10.75;5.47;;;8.10;99.90;;;;;;10035619;28;20057;-68
2022/11/27 19:31:19;;;;;;;10.80;4.97;;;8.10;99.90;;;;;;10034250;28;20175;-71
2022/11/27 19:36:12;;;;;;;10.57;4.95;;;8.10;99.90;;;;;;10044820;28;20025;-70
2022/11/27 19:41:07;;;;;;;11.00;5.22;;;8.00;99.90;;;;;;10040808;28;20057;-65
2022/11/27 19:45:58;;;;;;;11.30;5.60;;;7.90;99.90;;;;;;10043389;28;20208;-65
2022/11/27 19:50:50;;;;;;;12.30;4.88;;;7.90;99.90;;;;;;10041372;28;20119;-63
2022/11/27 19:55:41;;;;;;;10.45;5.93;;;7.90;99.90;;;;;;10040509;28;20082;-74
2022/11/27 20:00:31;;;;;;;9.50;6.15;;;8.00;99.90;;;;;;10041237;28;20475;-66
2022/11/27 20:05:22;;;;;;;10.38;6.53;;;7.90;99.90;;;;;;10033305;28;20229;-70
2022/11/27 20:10:14;;;;;;;13.43;6.82;;;7.90;99.90;;;;;;10024302;28;20050;-69
2022/11/27 20:15:09;;;;;;;9.85;5.97;;;7.90;99.90;;;;;;10025205;28;20033;-72
2022/11/27 20:20:00;;;;;;;13.80;7.50;;;7.90;99.90;;;;;;10035293;28;20136;-71
2022/11/27 20:24:52;;;;;;;12.70;6.10;;;8.00;99.90;;;;;;10042164;28;20030;-72
2022/11/27 20:29:42;;;;;;;11.18;6.07;;;8.00;99.90;;;;;;10035150;28;20075;-67
2022/11/27 20:34:33;;;;;;;10.18;5.63;;;7.90;99.90;;;;;;10038866;28;20029;-75
2022/11/27 20:39:24;;;;;;;12.35;7.15;;;7.90;99.90;;;;;;10031167;28;20026;-75
2022/11/27 20:44:15;;;;;;;13.20;6.18;;;7.90;99.90;;;;;;10034034;28;20050;-71
2022/11/27 20:49:06;;;;;;;13.45;6.38;;;7.90;99.90;;;;;;10032393;28;20071;-68
2022/11/27 20:53:58;;;;;;;11.95;6.10;;;7.90;99.90;;;;;;10036938;28;20025;-72
2022/11/27 20:58:48;;;;;;;13.57;6.65;;;7.90;99.90;;;;;;10029049;28;20044;-67
2022/11/27 21:03:39;;;;;;;10.80;6.10;;;7.90;99.90;;;;;;10030550;28;20028;-67
2022/11/27 21:08:30;;;;;;;9.73;5.82;;;7.70;99.90;;;;;;10028033;28;20124;-72
2022/11/27 21:13:21;;;;;;;11.65;5.90;;;7.80;99.90;;;;;;10024586;28;20152;-62
2022/11/27 21:18:11;;;;;;;10.88;5.85;;;7.90;99.90;;;;;;10037527;28;20048;-71
2022/11/27 21:23:02;;;;;;;11.50;6.88;;;7.80;99.90;;;;;;10027638;28;20026;-69
2022/11/27 21:27:56;;;;;;;12.70;6.93;;;7.80;99.90;;;;;;10029022;28;20053;-67
2022/11/27 21:32:47;;;;;;;16.40;7.63;;;7.90;99.90;;;;;;10020997;28;20116;-68
2022/11/27 21:37:37;;;;;;;14.27;6.75;;;7.90;99.90;;;;;;10029411;28;20128;-68
2022/11/27 21:42:31;;;;;;;9.95;5.65;;;7.90;99.90;;;;;;10033251;28;20021;-63
2022/11/27 21:47:22;;;;;;;14.20;6.05;;;7.90;99.90;;;;;;10040681;28;20080;-66
2022/11/27 21:52:12;;;;;;;15.05;6.03;;;8.00;99.90;;;;;;10037297;28;20033;-73
2022/11/27 21:57:03;;;;;;;11.27;5.85;;;7.90;99.90;;;;;;10029694;28;20494;-63
2022/11/27 22:01:55;;;;;;;11.65;6.28;;;7.80;99.90;;;;;;10036523;28;20021;-70
2022/11/27 22:06:46;;;;;;;11.50;6.07;;;7.80;99.90;;;;;;10029425;28;20030;-72
2022/11/27 22:11:37;;;;;;;12.45;6.40;;;7.70;99.90;;;;;;10031047;28;20036;-68
2022/11/27 22:16:30;;;;;;;12.93;6.43;;;7.70;99.90;;;;;;10034655;28;20061;-64
2022/11/27 22:21:20;;;;;;;13.32;6.38;;;7.60;99.90;;;;;;10040622;28;20372;-71
2022/11/27 22:26:13;;;;;;;9.98;6.00;;;7.60;99.90;;;;;;10045591;28;20112;-62
2022/11/27 22:31:22;;;;;;;15.50;6.70;;;7.60;99.90;;;;;;10044440;28;20452;-72
2022/11/27 22:36:19;;;;;;;16.73;5.60;;;7.70;99.90;;;;;;10044421;28;20025;-69
2022/11/27 22:41:10;;;;;;;13.13;6.15;;;7.70;99.90;;;;;;10041063;28;20479;-73
2022/11/27 22:46:10;;;;;;;9.45;5.68;;;7.60;99.90;;;;;;10048026;28;20558;-72
2022/11/27 22:51:01;;;;;;;14.82;6.30;;;7.70;99.90;;;;;;10040479;28;20045;-73
2022/11/27 22:55:52;;;;;;;14.82;6.10;;;7.60;99.90;;;;;;10022768;28;20049;-72
2022/11/27 23:00:42;;;;;;;11.40;6.43;;;7.60;99.90;;;;;;10011565;28;20567;-74
2022/11/27 23:05:33;;;;;;;15.10;6.70;;;7.60;99.90;;;;;;10008110;28;20570;-74
2022/11/27 23:10:24;;;;;;;11.45;6.75;;;7.50;99.90;;;;;;10019148;28;20129;-71
2022/11/27 23:15:15;;;;;;;15.75;6.93;;;7.60;99.90;;;;;;10016878;28;20029;-71
2022/11/27 23:20:06;;;;;;;13.30;6.70;;;7.50;99.90;;;;;;10019220;28;20041;-73
2022/11/27 23:24:57;;;;;;;11.38;6.78;;;7.60;99.90;;;;;;10040523;28;20017;-75
2022/11/27 23:29:47;;;;;;;16.15;8.35;;;7.50;99.90;;;;;;10039905;28;20702;-71
2022/11/27 23:34:38;;;;;;;12.25;6.95;;;7.60;99.90;;;;;;10040409;28;20503;-73
2022/11/27 23:39:29;;;;;;;14.38;7.18;;;7.60;99.90;;;;;;10043654;28;20033;-74
2022/11/27 23:44:20;;;;;;;12.30;6.97;;;7.60;99.90;;;;;;10045980;28;20076;-74
2022/11/27 23:49:11;;;;;;;13.43;6.07;;;7.60;99.90;;;;;;10049297;28;20132;-73
2022/11/27 23:54:06;;;;;;;13.85;6.88;;;7.60;99.90;;;;;;10051870;28;20087;-73
2022/11/27 23:58:58;;;;;;;12.52;5.72;;;7.70;99.90;;;;;;10050520;28;20022;-74
